sensor_id;sensor_type;location;lat;lon;timestamp;P1;durP1;ratioP1;P2;durP2;ratioP2
10977;SDS011;5542;48.272;10.794;2022-08-30T00:01:00;3.40;;;3.20;;
10977;SDS011;5542;48.272;10.794;2022-08-30T00:03:29;3.28;;;3.08;;
10977;SDS011;5542;48.272;10.794;2022-08-30T00:05:57;3.20;;;3.00;;
10977;SDS011;5542;48.272;10.794;2022-08-30T00:08:24;3.65;;;3.40;;
10977;SDS011;5542;48.272;10.794;2022-08-30T00:10:50;3.33;;;3.13;;
10977;SDS011;5542;48.272;10.794;2022-08-30T00:13:19;3.38;;;3.17;;
10977;SDS011;5542;48.272;10.794;2022-08-30T00:15:46;3.28;;;3.08;;
10977;SDS011;5542;48.272;10.794;2022-08-30T00:18:13;2.97;;;2.78;;
10977;SDS011;5542;48.272;10.794;2022-08-30T00:20:42;3.30;;;3.10;;
10977;SDS011;5542;48.272;10.794;2022-08-30T00:23:10;3.03;;;2.83;;
10977;SDS011;5542;48.272;10.794;2022-08-30T00:25:37;3.10;;;2.90;;
10977;SDS011;5542;48.272;10.794;2022-08-30T00:28:04;2.60;;;2.50;;
10977;SDS011;5542;48.272;10.794;2022-08-30T00:30:32;2.17;;;2.07;;
10977;SDS011;5542;48.272;10.794;2022-08-30T00:32:59;2.63;;;2.50;;
10977;SDS011;5542;48.272;10.794;2022-08-30T00:35:25;2.88;;;2.67;;
10977;SDS011;5542;48.272;10.794;2022-08-30T00:37:53;2.72;;;2.53;;
10977;SDS011;5542;48.272;10.794;2022-08-30T00:40:19;2.80;;;2.60;;
10977;SDS011;5542;48.272;10.794;2022-08-30T00:42:47;2.03;;;1.92;;
10977;SDS011;5542;48.272;10.794;2022-08-30T00:45:15;2.40;;;2.20;;
10977;SDS011;5542;48.272;10.794;2022-08-30T00:47:45;2.00;;;1.90;;
10977;SDS011;5542;48.272;10.794;2022-08-30T00:50:14;2.08;;;1.98;;
10977;SDS011;5542;48.272;10.794;2022-08-30T00:52:44;2.28;;;2.17;;
10977;SDS011;5542;48.272;10.794;2022-08-30T00:55:13;2.40;;;2.30;;
10977;SDS011;5542;48.272;10.794;2022-08-30T00:57:42;1.90;;;1.80;;
10977;SDS011;5542;48.272;10.794;2022-08-30T01:00:10;2.50;;;2.37;;
10977;SDS011;5542;48.272;10.794;2022-08-30T01:02:39;2.33;;;2.22;;
10977;SDS011;5542;48.272;10.794;2022-08-30T01:05:08;2.22;;;2.13;;
10977;SDS011;5542;48.272;10.794;2022-08-30T01:07:36;2.58;;;2.40;;
10977;SDS011;5542;48.272;10.794;2022-08-30T01:10:04;2.70;;;2.50;;
10977;SDS011;5542;48.272;10.794;2022-08-30T01:12:33;2.80;;;2.60;;
10977;SDS011;5542;48.272;10.794;2022-08-30T01:15:01;2.45;;;2.35;;
10977;SDS011;5542;48.272;10.794;2022-08-30T01:17:29;2.10;;;2.00;;
10977;SDS011;5542;48.272;10.794;2022-08-30T01:19:56;2.03;;;1.92;;
10977;SDS011;5542;48.272;10.794;2022-08-30T01:22:27;2.10;;;2.00;;
10977;SDS011;5542;48.272;10.794;2022-08-30T01:25:00;2.30;;;2.20;;
10977;SDS011;5542;48.272;10.794;2022-08-30T01:27:29;2.50;;;2.37;;
10977;SDS011;5542;48.272;10.794;2022-08-30T01:29:57;2.50;;;2.40;;
10977;SDS011;5542;48.272;10.794;2022-08-30T01:32:26;2.63;;;2.50;;
10977;SDS011;5542;48.272;10.794;2022-08-30T01:34:54;2.50;;;2.40;;
10977;SDS011;5542;48.272;10.794;2022-08-30T01:37:22;2.70;;;2.50;;
10977;SDS011;5542;48.272;10.794;2022-08-30T01:39:52;3.30;;;3.00;;
10977;SDS011;5542;48.272;10.794;2022-08-30T01:42:20;3.20;;;3.00;;
10977;SDS011;5542;48.272;10.794;2022-08-30T01:44:48;3.97;;;3.67;;
10977;SDS011;5542;48.272;10.794;2022-08-30T01:47:16;3.47;;;3.20;;
10977;SDS011;5542;48.272;10.794;2022-08-30T01:49:43;3.45;;;3.17;;
10977;SDS011;5542;48.272;10.794;2022-08-30T01:52:10;3.55;;;3.25;;
10977;SDS011;5542;48.272;10.794;2022-08-30T01:54:38;3.78;;;3.47;;
10977;SDS011;5542;48.272;10.794;2022-08-30T01:57:07;2.83;;;2.63;;
10977;SDS011;5542;48.272;10.794;2022-08-30T01:59:38;2.60;;;2.50;;
10977;SDS011;5542;48.272;10.794;2022-08-30T02:02:06;2.47;;;2.30;;
10977;SDS011;5542;48.272;10.794;2022-08-30T02:04:34;2.70;;;2.50;;
10977;SDS011;5542;48.272;10.794;2022-08-30T02:07:01;2.60;;;2.40;;
10977;SDS011;5542;48.272;10.794;2022-08-30T02:09:28;2.95;;;2.75;;
10977;SDS011;5542;48.272;10.794;2022-08-30T02:11:55;3.00;;;2.80;;
10977;SDS011;5542;48.272;10.794;2022-08-30T02:14:22;3.50;;;3.20;;
10977;SDS011;5542;48.272;10.794;2022-08-30T02:16:50;3.00;;;2.80;;
10977;SDS011;5542;48.272;10.794;2022-08-30T02:19:16;3.00;;;2.80;;
10977;SDS011;5542;48.272;10.794;2022-08-30T02:21:43;3.22;;;2.90;;
10977;SDS011;5542;48.272;10.794;2022-08-30T02:24:10;3.08;;;2.88;;
10977;SDS011;5542;48.272;10.794;2022-08-30T02:26:36;3.75;;;3.45;;
10977;SDS011;5542;48.272;10.794;2022-08-30T02:29:03;4.20;;;3.57;;
10977;SDS011;5542;48.272;10.794;2022-08-30T02:31:31;3.53;;;3.22;;
10977;SDS011;5542;48.272;10.794;2022-08-30T02:33:59;3.30;;;3.10;;
10977;SDS011;5542;48.272;10.794;2022-08-30T02:36:25;3.20;;;3.00;;
10977;SDS011;5542;48.272;10.794;2022-08-30T02:38:52;3.40;;;3.20;;
10977;SDS011;5542;48.272;10.794;2022-08-30T02:41:19;3.38;;;3.17;;
10977;SDS011;5542;48.272;10.794;2022-08-30T02:43:47;3.60;;;3.30;;
10977;SDS011;5542;48.272;10.794;2022-08-30T02:46:15;3.50;;;3.30;;
10977;SDS011;5542;48.272;10.794;2022-08-30T02:48:42;3.60;;;3.30;;
10977;SDS011;5542;48.272;10.794;2022-08-30T02:51:11;2.83;;;2.63;;
10977;SDS011;5542;48.272;10.794;2022-08-30T02:53:39;3.10;;;2.90;;
10977;SDS011;5542;48.272;10.794;2022-08-30T02:56:07;3.42;;;3.15;;
10977;SDS011;5542;48.272;10.794;2022-08-30T02:58:34;3.50;;;3.20;;
10977;SDS011;5542;48.272;10.794;2022-08-30T03:01:02;3.47;;;3.28;;
10977;SDS011;5542;48.272;10.794;2022-08-30T03:03:30;3.30;;;3.10;;
10977;SDS011;5542;48.272;10.794;2022-08-30T03:05:57;3.05;;;2.85;;
10977;SDS011;5542;48.272;10.794;2022-08-30T03:08:25;3.10;;;2.90;;
10977;SDS011;5542;48.272;10.794;2022-08-30T03:10:52;3.28;;;3.08;;
10977;SDS011;5542;48.272;10.794;2022-08-30T03:13:20;2.73;;;2.60;;
10977;SDS011;5542;48.272;10.794;2022-08-30T03:15:47;2.97;;;2.78;;
10977;SDS011;5542;48.272;10.794;2022-08-30T03:18:14;2.80;;;2.60;;
10977;SDS011;5542;48.272;10.794;2022-08-30T03:20:41;2.90;;;2.70;;
10977;SDS011;5542;48.272;10.794;2022-08-30T03:23:07;2.63;;;2.42;;
10977;SDS011;5542;48.272;10.794;2022-08-30T03:25:35;2.90;;;2.70;;
10977;SDS011;5542;48.272;10.794;2022-08-30T03:28:03;2.85;;;2.65;;
10977;SDS011;5542;48.272;10.794;2022-08-30T03:30:30;3.17;;;2.97;;
10977;SDS011;5542;48.272;10.794;2022-08-30T03:32:57;2.60;;;2.50;;
10977;SDS011;5542;48.272;10.794;2022-08-30T03:35:24;2.33;;;2.22;;
10977;SDS011;5542;48.272;10.794;2022-08-30T03:37:51;3.00;;;2.80;;
10977;SDS011;5542;48.272;10.794;2022-08-30T03:40:18;2.40;;;2.30;;
10977;SDS011;5542;48.272;10.794;2022-08-30T03:42:48;2.63;;;2.50;;
10977;SDS011;5542;48.272;10.794;2022-08-30T03:45:15;2.20;;;2.10;;
10977;SDS011;5542;48.272;10.794;2022-08-30T03:47:43;2.17;;;2.08;;
10977;SDS011;5542;48.272;10.794;2022-08-30T03:50:10;2.10;;;2.00;;
10977;SDS011;5542;48.272;10.794;2022-08-30T03:52:38;1.40;;;1.40;;
10977;SDS011;5542;48.272;10.794;2022-08-30T03:55:05;2.35;;;2.25;;
10977;SDS011;5542;48.272;10.794;2022-08-30T03:57:34;2.22;;;2.13;;
10977;SDS011;5542;48.272;10.794;2022-08-30T04:00:02;3.05;;;2.85;;
10977;SDS011;5542;48.272;10.794;2022-08-30T04:02:30;3.10;;;2.90;;
10977;SDS011;5542;48.272;10.794;2022-08-30T04:04:56;2.83;;;2.63;;
10977;SDS011;5542;48.272;10.794;2022-08-30T04:07:23;2.33;;;2.22;;
10977;SDS011;5542;48.272;10.794;2022-08-30T04:09:50;2.70;;;2.50;;
10977;SDS011;5542;48.272;10.794;2022-08-30T04:12:16;3.20;;;3.00;;
10977;SDS011;5542;48.272;10.794;2022-08-30T04:14:43;3.80;;;3.50;;
10977;SDS011;5542;48.272;10.794;2022-08-30T04:17:11;3.50;;;3.20;;
10977;SDS011;5542;48.272;10.794;2022-08-30T04:19:37;2.28;;;2.17;;
10977;SDS011;5542;48.272;10.794;2022-08-30T04:22:04;3.00;;;2.80;;
10977;SDS011;5542;48.272;10.794;2022-08-30T04:24:31;3.17;;;2.97;;
10977;SDS011;5542;48.272;10.794;2022-08-30T04:26:58;3.65;;;3.35;;
10977;SDS011;5542;48.272;10.794;2022-08-30T04:29:25;3.17;;;2.97;;
10977;SDS011;5542;48.272;10.794;2022-08-30T04:31:52;3.10;;;2.90;;
10977;SDS011;5542;48.272;10.794;2022-08-30T04:34:19;3.30;;;3.10;;
10977;SDS011;5542;48.272;10.794;2022-08-30T04:36:46;2.83;;;2.63;;
10977;SDS011;5542;48.272;10.794;2022-08-30T04:39:13;3.05;;;2.85;;
10977;SDS011;5542;48.272;10.794;2022-08-30T04:41:40;3.13;;;2.85;;
10977;SDS011;5542;48.272;10.794;2022-08-30T04:44:06;2.88;;;2.67;;
10977;SDS011;5542;48.272;10.794;2022-08-30T04:46:33;2.50;;;2.40;;
10977;SDS011;5542;48.272;10.794;2022-08-30T04:49:00;3.33;;;2.92;;
10977;SDS011;5542;48.272;10.794;2022-08-30T04:51:28;3.28;;;3.08;;
10977;SDS011;5542;48.272;10.794;2022-08-30T04:53:55;3.50;;;3.20;;
10977;SDS011;5542;48.272;10.794;2022-08-30T04:56:22;3.50;;;3.20;;
10977;SDS011;5542;48.272;10.794;2022-08-30T04:58:50;3.17;;;2.97;;
10977;SDS011;5542;48.272;10.794;2022-08-30T05:01:20;3.50;;;3.20;;
10977;SDS011;5542;48.272;10.794;2022-08-30T05:03:48;3.42;;;3.20;;
10977;SDS011;5542;48.272;10.794;2022-08-30T05:06:16;3.42;;;3.17;;
10977;SDS011;5542;48.272;10.794;2022-08-30T05:08:44;3.20;;;2.90;;
10977;SDS011;5542;48.272;10.794;2022-08-30T05:11:11;3.28;;;3.05;;
10977;SDS011;5542;48.272;10.794;2022-08-30T05:13:38;3.22;;;2.80;;
10977;SDS011;5542;48.272;10.794;2022-08-30T05:16:05;3.20;;;2.90;;
10977;SDS011;5542;48.272;10.794;2022-08-30T05:18:33;3.40;;;3.20;;
10977;SDS011;5542;48.272;10.794;2022-08-30T05:21:04;2.85;;;2.65;;
10977;SDS011;5542;48.272;10.794;2022-08-30T05:23:32;3.20;;;3.00;;
10977;SDS011;5542;48.272;10.794;2022-08-30T05:26:04;4.38;;;3.97;;
10977;SDS011;5542;48.272;10.794;2022-08-30T05:28:31;3.57;;;3.37;;
10977;SDS011;5542;48.272;10.794;2022-08-30T05:30:58;3.28;;;3.00;;
10977;SDS011;5542;48.272;10.794;2022-08-30T05:33:25;3.97;;;3.67;;
10977;SDS011;5542;48.272;10.794;2022-08-30T05:35:51;3.58;;;3.28;;
10977;SDS011;5542;48.272;10.794;2022-08-30T05:38:18;3.70;;;3.40;;
10977;SDS011;5542;48.272;10.794;2022-08-30T05:40:45;4.82;;;4.43;;
10977;SDS011;5542;48.272;10.794;2022-08-30T05:43:13;4.90;;;4.50;;
10977;SDS011;5542;48.272;10.794;2022-08-30T05:45:39;5.03;;;4.53;;
10977;SDS011;5542;48.272;10.794;2022-08-30T05:48:06;3.90;;;3.60;;
10977;SDS011;5542;48.272;10.794;2022-08-30T05:50:32;4.70;;;4.40;;
10977;SDS011;5542;48.272;10.794;2022-08-30T05:52:59;4.43;;;4.13;;
10977;SDS011;5542;48.272;10.794;2022-08-30T05:55:25;4.65;;;4.25;;
10977;SDS011;5542;48.272;10.794;2022-08-30T05:57:52;4.80;;;4.40;;
10977;SDS011;5542;48.272;10.794;2022-08-30T06:00:20;5.70;;;5.20;;
10977;SDS011;5542;48.272;10.794;2022-08-30T06:02:47;4.90;;;4.50;;
10977;SDS011;5542;48.272;10.794;2022-08-30T06:05:18;5.22;;;4.72;;
10977;SDS011;5542;48.272;10.794;2022-08-30T06:07:44;5.47;;;4.97;;
10977;SDS011;5542;48.272;10.794;2022-08-30T06:10:11;6.03;;;5.53;;
10977;SDS011;5542;48.272;10.794;2022-08-30T06:12:38;6.82;;;6.28;;
10977;SDS011;5542;48.272;10.794;2022-08-30T06:15:05;6.20;;;5.60;;
10977;SDS011;5542;48.272;10.794;2022-08-30T06:17:33;6.30;;;5.70;;
10977;SDS011;5542;48.272;10.794;2022-08-30T06:20:00;6.90;;;6.30;;
10977;SDS011;5542;48.272;10.794;2022-08-30T06:22:27;6.90;;;6.20;;
10977;SDS011;5542;48.272;10.794;2022-08-30T06:24:53;5.88;;;5.38;;
10977;SDS011;5542;48.272;10.794;2022-08-30T06:27:20;7.10;;;6.40;;
10977;SDS011;5542;48.272;10.794;2022-08-30T06:29:49;6.63;;;6.00;;
10977;SDS011;5542;48.272;10.794;2022-08-30T06:32:16;6.18;;;5.60;;
10977;SDS011;5542;48.272;10.794;2022-08-30T06:34:44;6.68;;;6.07;;
10977;SDS011;5542;48.272;10.794;2022-08-30T06:37:10;6.93;;;6.22;;
10977;SDS011;5542;48.272;10.794;2022-08-30T06:39:37;6.43;;;5.78;;
10977;SDS011;5542;48.272;10.794;2022-08-30T06:42:04;6.47;;;5.88;;
10977;SDS011;5542;48.272;10.794;2022-08-30T06:44:30;6.03;;;5.53;;
10977;SDS011;5542;48.272;10.794;2022-08-30T06:46:57;5.85;;;5.35;;
10977;SDS011;5542;48.272;10.794;2022-08-30T06:49:24;6.32;;;5.72;;
10977;SDS011;5542;48.272;10.794;2022-08-30T06:51:52;5.82;;;5.20;;
10977;SDS011;5542;48.272;10.794;2022-08-30T06:54:18;5.47;;;5.07;;
10977;SDS011;5542;48.272;10.794;2022-08-30T06:56:45;6.95;;;6.10;;
10977;SDS011;5542;48.272;10.794;2022-08-30T06:59:11;6.20;;;5.70;;
10977;SDS011;5542;48.272;10.794;2022-08-30T07:01:38;6.50;;;5.82;;
10977;SDS011;5542;48.272;10.794;2022-08-30T07:04:05;6.28;;;5.60;;
10977;SDS011;5542;48.272;10.794;2022-08-30T07:06:31;5.53;;;4.93;;
10977;SDS011;5542;48.272;10.794;2022-08-30T07:08:59;6.25;;;5.65;;
10977;SDS011;5542;48.272;10.794;2022-08-30T07:11:27;5.80;;;5.30;;
10977;SDS011;5542;48.272;10.794;2022-08-30T07:13:55;6.10;;;5.50;;
10977;SDS011;5542;48.272;10.794;2022-08-30T07:16:23;6.80;;;5.95;;
10977;SDS011;5542;48.272;10.794;2022-08-30T07:18:50;7.70;;;6.30;;
10977;SDS011;5542;48.272;10.794;2022-08-30T07:21:19;6.88;;;6.18;;
10977;SDS011;5542;48.272;10.794;2022-08-30T07:23:48;7.68;;;6.90;;
10977;SDS011;5542;48.272;10.794;2022-08-30T07:26:17;7.13;;;6.38;;
10977;SDS011;5542;48.272;10.794;2022-08-30T07:28:46;6.65;;;6.05;;
10977;SDS011;5542;48.272;10.794;2022-08-30T07:31:13;7.10;;;6.40;;
10977;SDS011;5542;48.272;10.794;2022-08-30T07:33:41;6.15;;;5.32;;
10977;SDS011;5542;48.272;10.794;2022-08-30T07:36:08;6.67;;;6.07;;
10977;SDS011;5542;48.272;10.794;2022-08-30T07:38:36;6.20;;;5.60;;
10977;SDS011;5542;48.272;10.794;2022-08-30T07:41:03;6.07;;;5.57;;
10977;SDS011;5542;48.272;10.794;2022-08-30T07:43:32;6.68;;;5.72;;
10977;SDS011;5542;48.272;10.794;2022-08-30T07:46:00;5.60;;;5.10;;
10977;SDS011;5542;48.272;10.794;2022-08-30T07:48:28;6.45;;;5.85;;
10977;SDS011;5542;48.272;10.794;2022-08-30T07:50:55;6.03;;;5.43;;
10977;SDS011;5542;48.272;10.794;2022-08-30T07:53:22;7.07;;;5.97;;
10977;SDS011;5542;48.272;10.794;2022-08-30T07:55:49;5.95;;;5.47;;
10977;SDS011;5542;48.272;10.794;2022-08-30T07:58:15;6.18;;;5.53;;
10977;SDS011;5542;48.272;10.794;2022-08-30T08:00:43;6.13;;;5.63;;
10977;SDS011;5542;48.272;10.794;2022-08-30T08:03:10;5.55;;;5.03;;
10977;SDS011;5542;48.272;10.794;2022-08-30T08:05:37;6.57;;;5.82;;
10977;SDS011;5542;48.272;10.794;2022-08-30T08:08:04;6.22;;;5.63;;
10977;SDS011;5542;48.272;10.794;2022-08-30T08:10:31;6.33;;;5.73;;
10977;SDS011;5542;48.272;10.794;2022-08-30T08:12:58;5.70;;;5.30;;
10977;SDS011;5542;48.272;10.794;2022-08-30T08:15:25;5.45;;;5.03;;
10977;SDS011;5542;48.272;10.794;2022-08-30T08:17:54;6.27;;;5.40;;
10977;SDS011;5542;48.272;10.794;2022-08-30T08:20:20;5.07;;;4.68;;
10977;SDS011;5542;48.272;10.794;2022-08-30T08:22:47;5.15;;;4.65;;
10977;SDS011;5542;48.272;10.794;2022-08-30T08:25:14;6.13;;;5.53;;
10977;SDS011;5542;48.272;10.794;2022-08-30T08:27:41;6.60;;;5.50;;
10977;SDS011;5542;48.272;10.794;2022-08-30T08:30:08;5.32;;;4.88;;
10977;SDS011;5542;48.272;10.794;2022-08-30T08:32:35;5.43;;;4.97;;
10977;SDS011;5542;48.272;10.794;2022-08-30T08:35:04;5.72;;;5.15;;
10977;SDS011;5542;48.272;10.794;2022-08-30T08:37:30;4.70;;;4.30;;
10977;SDS011;5542;48.272;10.794;2022-08-30T08:39:57;5.77;;;5.17;;
10977;SDS011;5542;48.272;10.794;2022-08-30T08:42:26;5.18;;;4.68;;
10977;SDS011;5542;48.272;10.794;2022-08-30T08:44:59;5.55;;;5.10;;
10977;SDS011;5542;48.272;10.794;2022-08-30T08:47:29;5.20;;;4.80;;
10977;SDS011;5542;48.272;10.794;2022-08-30T08:50:05;5.15;;;4.75;;
10977;SDS011;5542;48.272;10.794;2022-08-30T08:52:47;6.05;;;5.32;;
10977;SDS011;5542;48.272;10.794;2022-08-30T08:55:36;5.47;;;4.80;;
10977;SDS011;5542;48.272;10.794;2022-08-30T08:58:05;5.30;;;4.85;;
10977;SDS011;5542;48.272;10.794;2022-08-30T09:00:31;5.50;;;5.00;;
10977;SDS011;5542;48.272;10.794;2022-08-30T09:02:59;5.05;;;4.65;;
10977;SDS011;5542;48.272;10.794;2022-08-30T09:05:30;5.77;;;4.67;;
10977;SDS011;5542;48.272;10.794;2022-08-30T09:08:02;4.80;;;4.40;;
10977;SDS011;5542;48.272;10.794;2022-08-30T09:10:32;4.63;;;4.22;;
10977;SDS011;5542;48.272;10.794;2022-08-30T09:13:00;4.65;;;4.25;;
10977;SDS011;5542;48.272;10.794;2022-08-30T09:15:27;5.18;;;4.68;;
10977;SDS011;5542;48.272;10.794;2022-08-30T09:17:57;4.80;;;4.40;;
10977;SDS011;5542;48.272;10.794;2022-08-30T09:20:27;5.80;;;4.88;;
10977;SDS011;5542;48.272;10.794;2022-08-30T09:22:58;4.80;;;4.40;;
10977;SDS011;5542;48.272;10.794;2022-08-30T09:25:36;4.00;;;3.70;;
10977;SDS011;5542;48.272;10.794;2022-08-30T09:28:10;5.57;;;3.88;;
10977;SDS011;5542;48.272;10.794;2022-08-30T09:30:40;3.90;;;3.60;;
10977;SDS011;5542;48.272;10.794;2022-08-30T09:33:25;4.93;;;3.80;;
10977;SDS011;5542;48.272;10.794;2022-08-30T09:35:54;4.57;;;4.18;;
10977;SDS011;5542;48.272;10.794;2022-08-30T09:38:22;3.90;;;3.60;;
10977;SDS011;5542;48.272;10.794;2022-08-30T09:40:53;4.28;;;3.88;;
10977;SDS011;5542;48.272;10.794;2022-08-30T09:43:22;3.53;;;3.33;;
10977;SDS011;5542;48.272;10.794;2022-08-30T09:46:03;4.25;;;3.85;;
10977;SDS011;5542;48.272;10.794;2022-08-30T09:48:33;4.10;;;3.70;;
10977;SDS011;5542;48.272;10.794;2022-08-30T09:51:10;4.10;;;3.80;;
10977;SDS011;5542;48.272;10.794;2022-08-30T09:53:56;4.63;;;3.92;;
10977;SDS011;5542;48.272;10.794;2022-08-30T09:56:32;4.15;;;3.75;;
10977;SDS011;5542;48.272;10.794;2022-08-30T09:59:10;3.80;;;3.50;;
10977;SDS011;5542;48.272;10.794;2022-08-30T10:01:47;4.00;;;3.70;;
10977;SDS011;5542;48.272;10.794;2022-08-30T10:04:18;3.80;;;3.50;;
10977;SDS011;5542;48.272;10.794;2022-08-30T10:06:54;4.07;;;3.70;;
10977;SDS011;5542;48.272;10.794;2022-08-30T10:09:26;3.42;;;3.20;;
10977;SDS011;5542;48.272;10.794;2022-08-30T10:12:02;3.90;;;3.60;;
10977;SDS011;5542;48.272;10.794;2022-08-30T10:14:42;4.10;;;3.70;;
10977;SDS011;5542;48.272;10.794;2022-08-30T10:17:18;3.53;;;3.22;;
10977;SDS011;5542;48.272;10.794;2022-08-30T10:19:56;3.65;;;3.35;;
10977;SDS011;5542;48.272;10.794;2022-08-30T10:22:34;3.50;;;3.20;;
10977;SDS011;5542;48.272;10.794;2022-08-30T10:25:06;3.58;;;3.30;;
10977;SDS011;5542;48.272;10.794;2022-08-30T10:27:38;3.60;;;3.30;;
10977;SDS011;5542;48.272;10.794;2022-08-30T10:30:09;3.47;;;3.20;;
10977;SDS011;5542;48.272;10.794;2022-08-30T10:32:40;3.50;;;3.20;;
10977;SDS011;5542;48.272;10.794;2022-08-30T10:35:12;3.88;;;3.58;;
10977;SDS011;5542;48.272;10.794;2022-08-30T10:37:44;3.40;;;3.20;;
10977;SDS011;5542;48.272;10.794;2022-08-30T10:40:16;3.60;;;3.40;;
10977;SDS011;5542;48.272;10.794;2022-08-30T10:43:06;3.67;;;3.38;;
10977;SDS011;5542;48.272;10.794;2022-08-30T10:45:39;3.97;;;3.67;;
10977;SDS011;5542;48.272;10.794;2022-08-30T10:48:12;3.58;;;3.33;;
10977;SDS011;5542;48.272;10.794;2022-08-30T10:50:47;3.70;;;3.40;;
10977;SDS011;5542;48.272;10.794;2022-08-30T10:53:20;3.58;;;3.28;;
10977;SDS011;5542;48.272;10.794;2022-08-30T10:55:55;3.60;;;3.30;;
10977;SDS011;5542;48.272;10.794;2022-08-30T10:58:27;3.72;;;3.42;;
10977;SDS011;5542;48.272;10.794;2022-08-30T11:01:00;3.78;;;3.35;;
10977;SDS011;5542;48.272;10.794;2022-08-30T11:04:04;3.90;;;3.60;;
10977;SDS011;5542;48.272;10.794;2022-08-30T11:06:51;3.63;;;3.33;;
10977;SDS011;5542;48.272;10.794;2022-08-30T11:09:30;4.00;;;3.60;;
10977;SDS011;5542;48.272;10.794;2022-08-30T11:14:59;4.05;;;3.65;;
10977;SDS011;5542;48.272;10.794;2022-08-30T11:17:40;3.47;;;3.25;;
10977;SDS011;5542;48.272;10.794;2022-08-30T11:20:20;3.90;;;3.60;;
10977;SDS011;5542;48.272;10.794;2022-08-30T11:23:11;4.55;;;3.70;;
10977;SDS011;5542;48.272;10.794;2022-08-30T11:25:51;3.88;;;3.58;;
10977;SDS011;5542;48.272;10.794;2022-08-30T11:31:28;3.92;;;3.63;;
10977;SDS011;5542;48.272;10.794;2022-08-30T11:34:05;3.80;;;3.47;;
10977;SDS011;5542;48.272;10.794;2022-08-30T11:42:30;3.47;;;3.27;;
10977;SDS011;5542;48.272;10.794;2022-08-30T11:48:06;3.72;;;3.42;;
10977;SDS011;5542;48.272;10.794;2022-08-30T11:50:53;3.60;;;3.30;;
10977;SDS011;5542;48.272;10.794;2022-08-30T11:53:26;3.80;;;3.50;;
10977;SDS011;5542;48.272;10.794;2022-08-30T11:56:03;3.65;;;3.35;;
10977;SDS011;5542;48.272;10.794;2022-08-30T11:58:42;3.92;;;3.35;;
10977;SDS011;5542;48.272;10.794;2022-08-30T12:01:21;3.37;;;3.17;;
10977;SDS011;5542;48.272;10.794;2022-08-30T12:04:00;2.65;;;2.55;;
10977;SDS011;5542;48.272;10.794;2022-08-30T12:06:47;3.40;;;3.20;;
10977;SDS011;5542;48.272;10.794;2022-08-30T12:18:29;3.60;;;3.30;;
10977;SDS011;5542;48.272;10.794;2022-08-30T12:21:09;3.95;;;3.30;;
10977;SDS011;5542;48.272;10.794;2022-08-30T12:23:45;3.20;;;3.00;;
10977;SDS011;5542;48.272;10.794;2022-08-30T12:26:19;3.40;;;3.20;;
10977;SDS011;5542;48.272;10.794;2022-08-30T12:29:05;3.60;;;3.40;;
10977;SDS011;5542;48.272;10.794;2022-08-30T12:31:41;3.22;;;3.03;;
10977;SDS011;5542;48.272;10.794;2022-08-30T12:34:16;3.70;;;3.40;;
10977;SDS011;5542;48.272;10.794;2022-08-30T12:36:51;3.50;;;3.20;;
10977;SDS011;5542;48.272;10.794;2022-08-30T12:39:23;3.97;;;3.60;;
10977;SDS011;5542;48.272;10.794;2022-08-30T12:41:51;3.55;;;3.20;;
10977;SDS011;5542;48.272;10.794;2022-08-30T12:44:19;3.60;;;3.40;;
10977;SDS011;5542;48.272;10.794;2022-08-30T12:46:49;2.83;;;2.63;;
10977;SDS011;5542;48.272;10.794;2022-08-30T12:49:20;3.38;;;3.17;;
10977;SDS011;5542;48.272;10.794;2022-08-30T12:51:51;3.50;;;3.30;;
10977;SDS011;5542;48.272;10.794;2022-08-30T12:54:20;3.70;;;3.40;;
10977;SDS011;5542;48.272;10.794;2022-08-30T12:56:59;4.05;;;3.20;;
10977;SDS011;5542;48.272;10.794;2022-08-30T12:59:42;3.28;;;3.08;;
10977;SDS011;5542;48.272;10.794;2022-08-30T13:02:12;3.33;;;3.13;;
10977;SDS011;5542;48.272;10.794;2022-08-30T13:04:43;3.45;;;3.20;;
10977;SDS011;5542;48.272;10.794;2022-08-30T13:07:22;3.70;;;3.42;;
10977;SDS011;5542;48.272;10.794;2022-08-30T13:09:57;3.53;;;3.22;;
10977;SDS011;5542;48.272;10.794;2022-08-30T13:12:28;3.40;;;3.20;;
10977;SDS011;5542;48.272;10.794;2022-08-30T13:15:07;3.45;;;3.17;;
10977;SDS011;5542;48.272;10.794;2022-08-30T13:17:40;3.30;;;3.10;;
10977;SDS011;5542;48.272;10.794;2022-08-30T13:20:19;3.53;;;3.30;;
10977;SDS011;5542;48.272;10.794;2022-08-30T13:23:02;3.45;;;3.25;;
10977;SDS011;5542;48.272;10.794;2022-08-30T13:25:31;3.20;;;2.90;;
10977;SDS011;5542;48.272;10.794;2022-08-30T13:27:59;3.17;;;2.97;;
10977;SDS011;5542;48.272;10.794;2022-08-30T13:30:26;2.80;;;2.60;;
10977;SDS011;5542;48.272;10.794;2022-08-30T13:32:53;3.75;;;3.47;;
10977;SDS011;5542;48.272;10.794;2022-08-30T13:35:21;3.60;;;3.30;;
10977;SDS011;5542;48.272;10.794;2022-08-30T13:37:48;3.60;;;3.35;;
10977;SDS011;5542;48.272;10.794;2022-08-30T13:40:15;3.78;;;3.47;;
10977;SDS011;5542;48.272;10.794;2022-08-30T13:42:42;3.40;;;3.10;;
10977;SDS011;5542;48.272;10.794;2022-08-30T13:45:09;3.70;;;3.40;;
10977;SDS011;5542;48.272;10.794;2022-08-30T13:47:37;3.88;;;3.58;;
10977;SDS011;5542;48.272;10.794;2022-08-30T13:50:04;3.45;;;3.25;;
10977;SDS011;5542;48.272;10.794;2022-08-30T13:52:33;3.33;;;3.13;;
10977;SDS011;5542;48.272;10.794;2022-08-30T13:54:59;3.60;;;3.30;;
10977;SDS011;5542;48.272;10.794;2022-08-30T13:57:27;3.65;;;3.35;;
10977;SDS011;5542;48.272;10.794;2022-08-30T13:59:55;3.47;;;3.22;;
10977;SDS011;5542;48.272;10.794;2022-08-30T14:02:22;3.80;;;3.47;;
10977;SDS011;5542;48.272;10.794;2022-08-30T14:04:48;3.57;;;3.33;;
10977;SDS011;5542;48.272;10.794;2022-08-30T14:07:15;3.88;;;3.58;;
10977;SDS011;5542;48.272;10.794;2022-08-30T14:09:43;3.30;;;3.00;;
10977;SDS011;5542;48.272;10.794;2022-08-30T14:12:10;3.38;;;3.08;;
10977;SDS011;5542;48.272;10.794;2022-08-30T14:14:36;3.83;;;3.42;;
10977;SDS011;5542;48.272;10.794;2022-08-30T14:17:03;3.63;;;3.33;;
10977;SDS011;5542;48.272;10.794;2022-08-30T14:19:30;3.60;;;3.40;;
10977;SDS011;5542;48.272;10.794;2022-08-30T14:21:56;3.95;;;3.55;;
10977;SDS011;5542;48.272;10.794;2022-08-30T14:24:23;4.18;;;3.78;;
10977;SDS011;5542;48.272;10.794;2022-08-30T14:26:51;4.00;;;3.60;;
10977;SDS011;5542;48.272;10.794;2022-08-30T14:29:18;3.58;;;3.28;;
10977;SDS011;5542;48.272;10.794;2022-08-30T14:31:47;6.32;;;4.50;;
10977;SDS011;5542;48.272;10.794;2022-08-30T14:34:14;3.83;;;3.53;;
10977;SDS011;5542;48.272;10.794;2022-08-30T14:36:42;4.20;;;3.90;;
10977;SDS011;5542;48.272;10.794;2022-08-30T14:39:11;3.70;;;3.40;;
10977;SDS011;5542;48.272;10.794;2022-08-30T14:41:42;3.70;;;3.40;;
10977;SDS011;5542;48.272;10.794;2022-08-30T14:44:12;3.70;;;3.40;;
10977;SDS011;5542;48.272;10.794;2022-08-30T14:46:39;3.78;;;3.42;;
10977;SDS011;5542;48.272;10.794;2022-08-30T14:49:06;3.30;;;3.10;;
10977;SDS011;5542;48.272;10.794;2022-08-30T14:51:33;3.40;;;3.10;;
10977;SDS011;5542;48.272;10.794;2022-08-30T14:53:59;3.47;;;3.28;;
10977;SDS011;5542;48.272;10.794;2022-08-30T14:56:26;3.55;;;3.25;;
10977;SDS011;5542;48.272;10.794;2022-08-30T14:58:53;3.65;;;3.35;;
10977;SDS011;5542;48.272;10.794;2022-08-30T15:01:26;3.83;;;3.42;;
10977;SDS011;5542;48.272;10.794;2022-08-30T15:03:53;3.15;;;2.95;;
10977;SDS011;5542;48.272;10.794;2022-08-30T15:06:21;3.30;;;3.10;;
10977;SDS011;5542;48.272;10.794;2022-08-30T15:08:47;4.00;;;3.70;;
10977;SDS011;5542;48.272;10.794;2022-08-30T15:11:15;4.13;;;3.73;;
10977;SDS011;5542;48.272;10.794;2022-08-30T15:13:43;3.65;;;3.35;;
10977;SDS011;5542;48.272;10.794;2022-08-30T15:16:11;3.95;;;3.65;;
10977;SDS011;5542;48.272;10.794;2022-08-30T15:18:41;3.67;;;3.38;;
10977;SDS011;5542;48.272;10.794;2022-08-30T15:21:08;3.90;;;3.60;;
10977;SDS011;5542;48.272;10.794;2022-08-30T15:23:35;4.15;;;3.75;;
10977;SDS011;5542;48.272;10.794;2022-08-30T15:26:02;3.80;;;3.60;;